Main page
METAR-TAF:

METAR-TAF

Airports :

RAF Shawbury

Shawbury, England

latitude: 52-48N, longitude: 002-40W, elevation: 76 m

Current weather observation

The report was made 24 minutes ago, at 13:20 UTC
Wind 8 kt from the South
Temperature 7°C
Humidity 81%
Pressure 996 hPa
Visibility 10 km or more
Few clouds at a height of 2000 ft
Broken clouds at a height of 20000 ft

METAR: EGOS 131320Z 17008KT 9999 FEW020 BKN200 07/04 Q0996 NOSIG RMK BLU BLU

Time: 13:44 (13:44 UTC)

Forecast

The report was made 2 hours and 56 minutes ago, at 10:48 UTC
Forecast valid from 13 at 12 UTC to 13 at 21 UTC
Wind 8 kt from the Southwest
Visibility 10 km or more
Scattered clouds at a height of 3000 ft
Becoming
from 13 at 18 UTC to 13 at 21 UTC
Wind 10 kt from the East/Southeast with gusts up to 20 kt
Probability 30% :
Temporary
from 13 at 19 UTC to 13 at 21 UTC
Scattered clouds at a height of 2000 ft
light rain

TAF: EGOS 131048Z 1312/1321 22008KT 9999 SCT030 BECMG 1318/1321 11010G20KT PROB30 TEMPO 1319/1321 -RA SCT020

Weather observations and forecasts of more than 4000 airports (METAR and TAF reports).

The available stations are represented by yellow and red dots on the map.

Hover mouse over dot to see the name of the station.

Then click to see weather observations and forecasts.

To change the map : click on the green buttons with a black cross to zoom in, on the green button with a dash to zoom out, or on the green arrows for adjacent maps.


METAR-TAF: